Time;durP1;ratioP1;P1;durP2;ratioP2;P2;SDS_P1;SDS_P2;PMS_P1;PMS_P2;Temp;Humidity;BMP_temperature;BMP_pressure;BME280_temperature;BME280_humidity;BME280_pressure;Samples;Min_cycle;Max_cycle;Signal;HPM_P1;HPM_P2
2021/10/11 00:00:09;;;;;;;7.93;1.20;;;;;;;12.30;84.02;102739.97;5071478;28;20054;-38
2021/10/11 00:02:40;;;;;;;7.57;1.45;;;;;;;12.27;83.84;102738.53;5071588;28;20048;-39
2021/10/11 00:05:10;;;;;;;8.70;1.42;;;;;;;12.25;84.09;102737.13;5072138;28;20040;-40
2021/10/11 00:07:38;;;;;;;6.53;1.42;;;;;;;12.23;84.06;102740.16;5069924;28;20059;-39
2021/10/11 00:10:06;;;;;;;5.50;1.13;;;;;;;12.22;84.04;102737.63;5071720;28;20053;-40
2021/10/11 00:12:34;;;;;;;7.38;1.23;;;;;;;12.21;84.07;102735.94;5071566;28;20161;-40
2021/10/11 00:15:04;;;;;;;7.70;1.13;;;;;;;12.20;84.16;102723.91;5071111;28;20055;-36
2021/10/11 00:17:32;;;;;;;7.85;1.20;;;;;;;12.20;83.99;102734.25;5071470;28;20049;-41
2021/10/11 00:19:59;;;;;;;6.03;1.10;;;;;;;12.20;84.04;102734.25;5071666;28;20056;-37
2021/10/11 00:22:27;;;;;;;4.82;0.80;;;;;;;12.16;84.28;102733.13;5070887;28;20055;-43
2021/10/11 00:24:55;;;;;;;4.50;0.85;;;;;;;12.14;84.73;102729.72;5071628;28;20058;-42
2021/10/11 00:27:23;;;;;;;6.53;1.25;;;;;;;12.13;84.94;102728.03;5070387;28;20386;-40
2021/10/11 00:29:51;;;;;;;7.53;1.63;;;;;;;12.12;85.13;102729.16;5071611;28;20052;-35
2021/10/11 00:32:20;;;;;;;8.57;1.10;;;;;;;12.11;85.48;102733.06;5071075;28;20523;-43
2021/10/11 00:34:47;;;;;;;8.07;1.10;;;;;;;12.08;85.63;102726.88;5070870;28;20052;-35
2021/10/11 00:37:15;;;;;;;8.35;1.42;;;;;;;12.08;85.94;102728.81;5071287;28;20056;-35
2021/10/11 00:39:43;;;;;;;7.25;1.10;;;;;;;12.07;85.94;102729.94;5071433;28;20505;-37
2021/10/11 00:42:11;;;;;;;6.80;1.10;;;;;;;12.06;85.90;102731.03;5055171;28;20497;-38
2021/10/11 00:44:39;;;;;;;8.00;1.48;;;;;;;12.08;86.22;102732.47;5070976;28;20139;-38
2021/10/11 00:47:07;;;;;;;8.50;1.77;;;;;;;12.11;86.04;102733.91;5071290;28;20049;-34
2021/10/11 00:49:36;;;;;;;7.60;1.35;;;;;;;12.17;86.58;102726.41;5070609;28;20040;-37
2021/10/11 00:52:04;;;;;;;9.38;1.40;;;;;;;12.23;87.04;102728.13;5071044;28;20040;-39
2021/10/11 00:54:33;;;;;;;8.20;1.40;;;;;;;12.29;87.15;102725.13;5070129;28;20066;-38
2021/10/11 00:57:01;;;;;;;10.25;1.55;;;;;;;12.36;87.31;102730.53;5070768;28;20469;-38
2021/10/11 00:59:29;;;;;;;11.18;1.65;;;;;;;12.43;87.66;102731.13;5070787;28;20056;-38
2021/10/11 01:01:56;;;;;;;10.88;1.60;;;;;;;12.49;87.84;102726.44;5069777;28;20040;-38
2021/10/11 01:04:24;;;;;;;11.77;1.40;;;;;;;12.54;87.69;102724.53;5069967;28;20092;-44
2021/10/11 01:06:53;;;;;;;8.60;1.40;;;;;;;12.59;87.42;102718.13;5071517;28;20044;-36
2021/10/11 01:09:21;;;;;;;9.43;1.33;;;;;;;12.61;87.30;102713.91;5070816;28;20040;-38
2021/10/11 01:11:50;;;;;;;7.95;1.67;;;;;;;12.63;87.08;102714.50;5070339;28;20147;-39
2021/10/11 01:14:19;;;;;;;9.07;1.30;;;;;;;12.62;86.89;102724.00;5070570;28;20056;-36
2021/10/11 01:16:48;;;;;;;7.80;1.25;;;;;;;12.59;86.41;102721.75;5070333;28;20405;-41
2021/10/11 01:19:15;;;;;;;4.60;0.77;;;;;;;12.58;86.32;102719.25;5070606;28;20405;-37
2021/10/11 01:21:46;;;;;;;6.43;1.13;;;;;;;12.56;86.36;102719.50;5067415;28;20055;-37
2021/10/11 01:24:13;;;;;;;9.27;1.23;;;;;;;12.54;86.33;102721.72;5070327;28;20051;-38
2021/10/11 01:26:44;;;;;;;4.38;1.00;;;;;;;12.54;86.36;102713.31;5071098;28;20049;-42
2021/10/11 01:29:15;;;;;;;7.93;1.38;;;;;;;12.53;86.01;102714.44;5070725;28;20063;-39
2021/10/11 01:31:43;;;;;;;7.32;1.10;;;;;;;12.52;85.92;102709.94;5069976;28;20059;-35
2021/10/11 01:34:11;;;;;;;7.07;1.27;;;;;;;12.55;85.73;102715.00;5070867;28;20140;-38
2021/10/11 01:36:38;;;;;;;5.28;0.90;;;;;;;12.59;85.71;102706.94;5070695;28;20466;-37
2021/10/11 01:39:10;;;;;;;7.50;1.60;;;;;;;12.64;85.85;102710.59;5071213;28;20509;-41
2021/10/11 01:41:38;;;;;;;9.00;1.10;;;;;;;12.68;85.39;102708.94;5074642;28;20051;-36
2021/10/11 01:44:06;;;;;;;7.95;1.02;;;;;;;12.72;85.28;102707.31;5074422;28;20512;-43
2021/10/11 01:46:35;;;;;;;6.40;1.17;;;;;;;12.76;85.02;102707.63;5073928;28;20047;-42
2021/10/11 01:49:04;;;;;;;10.75;1.40;;;;;;;12.79;85.43;102704.25;5074696;28;20131;-48
2021/10/11 01:51:32;;;;;;;5.45;1.13;;;;;;;12.82;85.37;102694.47;5074188;28;20037;-41
2021/10/11 01:54:00;;;;;;;8.52;1.20;;;;;;;12.84;85.18;102704.28;5073974;28;20052;-44
2021/10/11 01:56:29;;;;;;;6.47;1.10;;;;;;;12.85;84.52;102707.94;5073882;28;20484;-40
2021/10/11 01:58:57;;;;;;;6.53;1.20;;;;;;;12.82;84.55;102700.91;5074424;28;20075;-40
2021/10/11 02:01:24;;;;;;;7.30;1.38;;;;;;;12.80;84.74;102702.28;5074058;28;20047;-37
2021/10/11 02:03:52;;;;;;;8.45;1.30;;;;;;;12.79;84.76;102695.03;5074455;28;20041;-40
2021/10/11 02:06:20;;;;;;;7.32;1.25;;;;;;;12.75;84.49;102686.31;5073330;28;20052;-40
2021/10/11 02:08:48;;;;;;;7.18;1.30;;;;;;;12.73;84.37;102680.97;5074280;28;20033;-37
2021/10/11 02:11:16;;;;;;;7.50;1.20;;;;;;;12.72;84.55;102678.44;5073335;28;20044;-39
2021/10/11 02:13:45;;;;;;;6.25;1.38;;;;;;;12.71;84.12;102677.59;5073765;28;20059;-39
2021/10/11 02:16:13;;;;;;;3.85;0.90;;;;;;;12.69;83.79;102684.59;5073918;28;20048;-40
2021/10/11 02:18:40;;;;;;;5.43;1.00;;;;;;;12.68;83.34;102677.28;5074063;28;20052;-38
2021/10/11 02:21:08;;;;;;;5.55;1.00;;;;;;;12.66;83.83;102677.56;5073287;28;20452;-41
2021/10/11 02:23:36;;;;;;;8.05;1.30;;;;;;;12.63;83.69;102669.69;5074113;28;20131;-39
2021/10/11 02:26:04;;;;;;;9.48;1.50;;;;;;;12.63;83.79;102663.25;5072670;28;20398;-38
2021/10/11 02:28:31;;;;;;;7.95;1.10;;;;;;;12.61;83.90;102659.84;5073217;28;20087;-36
2021/10/11 02:31:00;;;;;;;5.72;1.10;;;;;;;12.60;83.77;102659.00;5073784;28;20054;-37
2021/10/11 02:33:28;;;;;;;7.38;1.08;;;;;;;12.62;83.57;102648.38;5073621;28;20401;-41
2021/10/11 02:35:56;;;;;;;7.05;0.98;;;;;;;12.61;83.37;102645.84;5073048;28;20051;-36
2021/10/11 02:38:24;;;;;;;8.95;1.15;;;;;;;12.61;83.40;102649.50;5073640;28;20060;-41
2021/10/11 02:40:52;;;;;;;4.93;0.98;;;;;;;12.59;83.34;102646.13;5073626;28;20048;-44
2021/10/11 02:43:20;;;;;;;6.43;1.42;;;;;;;12.58;83.49;102644.47;5072839;28;20044;-43
2021/10/11 02:45:47;;;;;;;4.82;1.25;;;;;;;12.59;83.79;102646.13;5073839;28;20059;-39
2021/10/11 02:48:16;;;;;;;8.75;1.33;;;;;;;12.59;83.93;102651.72;5072503;28;20401;-42
2021/10/11 02:50:44;;;;;;;5.32;1.00;;;;;;;12.58;84.02;102654.81;5072787;28;20497;-39
2021/10/11 02:53:12;;;;;;;7.72;1.08;;;;;;;12.57;84.00;102658.75;5073233;28;20045;-41
2021/10/11 02:55:39;;;;;;;5.70;0.90;;;;;;;12.54;83.64;102657.31;5072707;28;20048;-43
2021/10/11 02:58:07;;;;;;;4.50;1.05;;;;;;;12.55;83.73;102649.75;5073031;28;20040;-35
2021/10/11 03:00:35;;;;;;;8.07;1.15;;;;;;;12.53;84.07;102644.41;5073229;28;20090;-39
2021/10/11 03:03:04;;;;;;;5.82;0.93;;;;;;;12.53;84.62;102643.56;5072337;28;20138;-38
2021/10/11 03:05:33;;;;;;;7.43;1.48;;;;;;;12.57;84.77;102650.34;5073328;28;20055;-42
2021/10/11 03:08:00;;;;;;;7.97;1.13;;;;;;;12.58;84.91;102641.66;5072916;28;20055;-42
2021/10/11 03:10:28;;;;;;;7.18;1.10;;;;;;;12.62;84.78;102651.19;5072688;28;20045;-38
2021/10/11 03:12:56;;;;;;;4.88;0.82;;;;;;;12.66;85.04;102640.31;5072397;28;20059;-35
2021/10/11 03:15:24;;;;;;;6.70;1.40;;;;;;;12.69;85.02;102634.16;5071828;28;20055;-39
2021/10/11 03:17:52;;;;;;;6.53;1.13;;;;;;;12.72;85.02;102639.22;5072105;28;20048;-40
2021/10/11 03:20:19;;;;;;;8.02;1.10;;;;;;;12.77;84.93;102645.72;5072734;28;20486;-37
2021/10/11 03:22:48;;;;;;;6.18;1.20;;;;;;;12.82;84.83;102632.84;5072857;28;20560;-40
2021/10/11 03:25:16;;;;;;;10.15;1.25;;;;;;;12.86;85.13;102639.59;5072585;28;20106;-40
2021/10/11 03:27:44;;;;;;;9.20;1.20;;;;;;;12.90;84.94;102646.34;5072794;28;20067;-34
2021/10/11 03:30:12;;;;;;;6.00;1.10;;;;;;;12.95;85.76;102640.78;5072056;28;20563;-38
2021/10/11 03:32:40;;;;;;;9.55;1.90;;;;;;;12.99;86.23;102627.91;5072571;28;20074;-35
2021/10/11 03:35:08;;;;;;;8.27;1.25;;;;;;;13.02;86.66;102627.34;5072482;28;20131;-42
2021/10/11 03:37:36;;;;;;;6.57;1.05;;;;;;;13.03;86.84;102631.81;5071967;28;20438;-35
2021/10/11 03:40:06;;;;;;;8.95;1.10;;;;;;;13.05;87.07;102629.59;5072331;28;20040;-38
2021/10/11 03:42:34;;;;;;;8.40;1.75;;;;;;;13.04;87.00;102633.50;5072536;28;20494;-42
2021/10/11 03:45:01;;;;;;;6.82;1.33;;;;;;;13.06;87.20;102629.31;5071233;28;20044;-42
2021/10/11 03:47:29;;;;;;;8.75;1.20;;;;;;;13.09;87.32;102622.34;5072583;28;20044;-36
2021/10/11 03:49:57;;;;;;;7.32;1.30;;;;;;;13.11;87.35;102620.09;5072036;28;20048;-37
2021/10/11 03:52:25;;;;;;;6.38;1.10;;;;;;;13.13;87.24;102623.47;5071745;28;20067;-39
2021/10/11 03:54:52;;;;;;;5.88;1.10;;;;;;;13.13;86.46;102617.88;5071820;28;20066;-40
2021/10/11 03:57:22;;;;;;;8.95;1.40;;;;;;;13.15;85.93;102621.28;5072014;28;20067;-41
2021/10/11 03:59:49;;;;;;;5.15;0.90;;;;;;;13.15;85.74;102612.88;5071399;28;20127;-36
2021/10/11 04:02:17;;;;;;;8.50;1.40;;;;;;;13.16;85.50;102620.16;5071372;28;20056;-43
2021/10/11 04:04:45;;;;;;;8.50;1.13;;;;;;;13.17;85.59;102613.44;5071896;28;20079;-32
2021/10/11 04:07:15;;;;;;;4.85;1.00;;;;;;;13.18;85.52;102628.31;5071475;28;20044;-40
2021/10/11 04:09:45;;;;;;;7.97;1.10;;;;;;;13.17;85.52;102626.63;5071628;28;20048;-40
2021/10/11 04:12:19;;;;;;;10.15;1.50;;;;;;;13.14;85.58;102632.75;5071766;28;20079;-38
2021/10/11 04:14:52;;;;;;;7.97;1.25;;;;;;;13.11;85.47;102626.56;5071350;28;20086;-36
2021/10/11 04:17:20;;;;;;;8.43;0.95;;;;;;;13.10;85.34;102630.47;5071644;28;20051;-44
2021/10/11 04:19:48;;;;;;;10.50;1.75;;;;;;;13.09;85.35;102633.53;5070965;28;20056;-39
2021/10/11 04:22:15;;;;;;;6.60;0.85;;;;;;;13.08;85.71;102629.06;5071349;28;20059;-37
2021/10/11 04:24:43;;;;;;;7.10;1.35;;;;;;;13.08;86.04;102629.91;5071608;28;20571;-42
2021/10/11 04:27:11;;;;;;;9.32;1.50;;;;;;;13.09;86.07;102627.94;5066551;28;20064;-38
2021/10/11 04:29:39;;;;;;;7.70;1.27;;;;;;;13.09;86.48;102622.34;5071238;28;20052;-36
2021/10/11 04:32:08;;;;;;;7.38;1.10;;;;;;;13.09;86.91;102616.72;5071156;28;20513;-40
2021/10/11 04:34:36;;;;;;;8.82;1.13;;;;;;;13.08;87.28;102617.84;5070783;28;20049;-40
2021/10/11 04:37:04;;;;;;;5.32;1.02;;;;;;;13.11;87.58;102620.94;5067501;28;20044;-40
2021/10/11 04:39:32;;;;;;;11.80;1.20;;;;;;;13.14;87.77;102627.97;5071601;28;20068;-40
2021/10/11 04:41:59;;;;;;;9.05;1.17;;;;;;;13.17;87.80;102624.66;5070385;28;20099;-42
2021/10/11 04:44:27;;;;;;;8.65;1.20;;;;;;;13.21;88.03;102625.78;5071456;28;20056;-41
2021/10/11 04:46:56;;;;;;;9.60;1.60;;;;;;;13.24;87.97;102628.03;5070963;28;20051;-35
2021/10/11 04:49:25;;;;;;;9.80;1.20;;;;;;;13.26;87.82;102628.59;5070738;28;20046;-41
2021/10/11 04:51:52;;;;;;;8.77;1.63;;;;;;;13.28;88.28;102633.94;5070995;28;20131;-41
2021/10/11 04:54:20;;;;;;;6.18;1.10;;;;;;;13.31;88.34;102630.59;5071101;28;20040;-33
2021/10/11 04:56:48;;;;;;;8.60;0.95;;;;;;;13.32;88.39;102629.47;5070764;28;20513;-43
2021/10/11 04:59:15;;;;;;;8.13;1.40;;;;;;;13.34;88.40;102628.09;5070992;28;20049;-41
2021/10/11 05:01:43;;;;;;;7.57;1.48;;;;;;;13.36;88.68;102636.22;5070068;28;20056;-40
2021/10/11 05:04:11;;;;;;;8.88;1.65;;;;;;;13.37;88.55;102630.34;5066564;28;20106;-37
2021/10/11 05:06:40;;;;;;;7.65;1.23;;;;;;;13.37;88.40;102641.56;5070781;28;20520;-45
2021/10/11 05:09:08;;;;;;;9.00;1.20;;;;;;;13.37;88.03;102649.13;5070080;28;20502;-39
2021/10/11 05:11:35;;;;;;;9.00;1.23;;;;;;;13.35;87.64;102637.34;5070397;28;20478;-39
2021/10/11 05:14:03;;;;;;;6.07;1.08;;;;;;;13.36;87.34;102644.66;5070471;28;20067;-45
2021/10/11 05:16:33;;;;;;;7.70;0.90;;;;;;;13.35;87.59;102643.81;5070050;28;20055;-42
2021/10/11 05:19:01;;;;;;;10.73;1.20;;;;;;;13.34;87.47;102647.72;5070804;28;20057;-39
2021/10/11 05:21:30;;;;;;;6.70;1.05;;;;;;;13.32;87.02;102647.16;5055331;28;20446;-41
2021/10/11 05:23:59;;;;;;;6.88;1.15;;;;;;;13.31;86.94;102642.66;5070077;28;20056;-37
2021/10/11 05:26:27;;;;;;;7.72;1.30;;;;;;;13.30;87.00;102637.31;5070885;28;20404;-38
2021/10/11 05:28:54;;;;;;;6.47;1.40;;;;;;;13.30;86.80;102637.31;5070335;28;20048;-42
2021/10/11 05:31:22;;;;;;;6.28;0.88;;;;;;;13.29;86.74;102642.09;5070075;28;20048;-41
2021/10/11 05:33:50;;;;;;;3.63;0.90;;;;;;;13.28;86.58;102636.75;5070438;28;20048;-44
2021/10/11 05:36:18;;;;;;;8.10;1.42;;;;;;;13.28;86.63;102633.94;5069406;28;20052;-43
2021/10/11 05:38:46;;;;;;;8.05;1.48;;;;;;;13.28;86.68;102631.13;5068373;28;20053;-37
2021/10/11 05:41:15;;;;;;;8.48;1.20;;;;;;;13.29;86.76;102633.66;5069726;28;20425;-44
2021/10/11 05:43:43;;;;;;;8.70;1.80;;;;;;;13.29;86.96;102642.09;5069412;28;20275;-41
2021/10/11 05:46:11;;;;;;;10.63;1.70;;;;;;;13.28;87.15;102640.41;5068986;28;20173;-37
2021/10/11 05:48:39;;;;;;;6.47;1.08;;;;;;;13.25;86.92;102626.06;5069495;28;20565;-38
2021/10/11 05:51:07;;;;;;;6.40;1.30;;;;;;;13.24;86.97;102628.03;5069786;28;20047;-39
2021/10/11 05:53:34;;;;;;;9.07;1.15;;;;;;;13.23;87.25;102633.91;5069965;28;20537;-37
2021/10/11 05:56:02;;;;;;;7.80;1.20;;;;;;;13.22;87.37;102623.81;5070134;28;20049;-33
2021/10/11 05:58:32;;;;;;;6.13;0.85;;;;;;;13.20;87.56;102628.84;5069743;28;20044;-44
2021/10/11 06:01:00;;;;;;;8.27;1.05;;;;;;;13.17;87.52;102630.28;5070316;28;20052;-39
2021/10/11 06:03:28;;;;;;;5.80;1.25;;;;;;;13.16;87.53;102633.34;5070059;28;20044;-38
2021/10/11 06:05:55;;;;;;;10.23;1.33;;;;;;;13.14;87.42;102639.19;5069419;28;20053;-38
2021/10/11 06:08:25;;;;;;;9.38;1.27;;;;;;;13.16;87.50;102642.59;5070139;28;20405;-43
2021/10/11 06:10:54;;;;;;;7.18;1.23;;;;;;;13.17;87.35;102641.47;5070503;28;20049;-41
2021/10/11 06:13:22;;;;;;;7.28;1.05;;;;;;;13.20;87.29;102646.50;5069388;28;20052;-41
2021/10/11 06:15:51;;;;;;;9.23;1.58;;;;;;;13.24;87.41;102646.81;5070478;28;20067;-38
2021/10/11 06:18:18;;;;;;;9.43;1.27;;;;;;;13.26;87.43;102648.22;5070203;28;20389;-37
2021/10/11 06:20:46;;;;;;;9.70;1.58;;;;;;;13.29;86.89;102658.06;5069634;28;20450;-40
2021/10/11 06:23:14;;;;;;;7.55;1.20;;;;;;;13.30;86.61;102662.56;5070143;28;20063;-39
2021/10/11 06:25:42;;;;;;;6.47;0.90;;;;;;;13.31;86.17;102670.69;5067015;28;20029;-36
2021/10/11 06:28:11;;;;;;;8.23;1.20;;;;;;;13.33;85.77;102671.25;5073539;28;20051;-37
2021/10/11 06:30:39;;;;;;;7.53;1.10;;;;;;;13.36;85.98;102675.50;5073438;28;20040;-34
2021/10/11 06:33:08;;;;;;;7.90;1.65;;;;;;;13.38;86.06;102668.50;5071945;28;20437;-40
2021/10/11 06:35:38;;;;;;;5.63;0.90;;;;;;;13.40;86.18;102671.84;5073222;28;20049;-42
2021/10/11 06:38:06;;;;;;;9.68;1.25;;;;;;;13.43;86.22;102684.47;5074001;28;20047;-42
2021/10/11 06:40:34;;;;;;;7.00;1.27;;;;;;;13.44;86.11;102674.94;5072787;28;20048;-41
2021/10/11 06:43:02;;;;;;;11.18;1.30;;;;;;;13.44;85.97;102675.78;5073490;28;20048;-37
2021/10/11 06:45:30;;;;;;;11.40;1.40;;;;;;;13.45;85.82;102680.28;5073085;28;20131;-36
2021/10/11 06:47:58;;;;;;;7.35;1.42;;;;;;;13.44;86.01;102678.59;5072914;28;20059;-41
2021/10/11 06:50:27;;;;;;;6.43;1.30;;;;;;;13.45;85.84;102687.84;5073015;28;20048;-35
2021/10/11 06:52:55;;;;;;;9.55;1.55;;;;;;;13.44;85.58;102678.59;5073531;28;20409;-36
2021/10/11 06:55:22;;;;;;;7.72;0.90;;;;;;;13.44;85.09;102672.13;5072639;28;20053;-36
2021/10/11 06:57:50;;;;;;;8.20;1.10;;;;;;;13.44;85.41;102675.78;5073536;28;20052;-40
2021/10/11 07:00:18;;;;;;;8.18;1.10;;;;;;;13.44;85.31;102681.41;5072864;28;20087;-39
2021/10/11 07:02:46;;;;;;;9.13;1.40;;;;;;;13.45;84.99;102682.25;5072358;28;20070;-39
2021/10/11 07:05:15;;;;;;;6.80;1.20;;;;;;;13.48;85.00;102678.03;5071998;28;20094;-37
2021/10/11 07:07:46;;;;;;;6.53;1.00;;;;;;;13.51;84.60;102683.97;5073200;28;20102;-34
2021/10/11 07:10:14;;;;;;;6.53;1.10;;;;;;;13.67;85.01;102693.25;5072515;28;20049;-41
2021/10/11 07:12:42;;;;;;;9.35;1.20;;;;;;;13.91;85.00;102688.84;5073016;28;20135;-43
2021/10/11 07:15:20;;;;;;;10.70;1.30;;;;;;;14.20;84.22;102693.94;5056868;28;20094;-35
2021/10/11 07:17:48;;;;;;;10.35;1.17;;;;;;;14.40;82.73;102700.44;5073002;28;20068;-39
2021/10/11 07:20:16;;;;;;;5.47;0.77;;;;;;;14.53;81.50;102699.06;5072809;28;20056;-41
2021/10/11 07:22:45;;;;;;;8.15;1.20;;;;;;;14.63;81.03;102701.84;5072203;28;20047;-42
2021/10/11 07:25:12;;;;;;;7.78;1.10;;;;;;;14.70;80.30;102710.84;5072429;28;20059;-37
2021/10/11 07:27:40;;;;;;;4.85;0.90;;;;;;;14.80;80.14;102713.63;5072498;28;20040;-41
2021/10/11 07:30:08;;;;;;;6.10;0.88;;;;;;;14.90;79.33;102709.16;5072317;28;20066;-39
2021/10/11 07:32:36;;;;;;;8.35;1.30;;;;;;;15.01;78.96;102710.81;5072313;28;20036;-41
2021/10/11 07:35:04;;;;;;;6.80;1.10;;;;;;;15.12;78.15;102710.50;5072698;28;20137;-41
2021/10/11 07:37:48;;;;;;;4.55;0.73;;;;;;;15.19;77.27;102712.19;5071517;28;20044;-38
2021/10/11 07:40:17;;;;;;;3.33;0.65;;;;;;;15.20;77.12;102711.03;5072498;28;20118;-43
2021/10/11 07:42:45;;;;;;;5.68;1.00;;;;;;;15.37;77.75;102714.38;5072118;28;20051;-37
2021/10/11 07:45:13;;;;;;;4.70;0.77;;;;;;;15.66;77.70;102717.38;5072055;28;20049;-37
2021/10/11 07:47:41;;;;;;;3.67;0.88;;;;;;;15.88;76.79;102729.09;5071975;28;20451;-35
2021/10/11 07:50:09;;;;;;;5.35;0.90;;;;;;;15.93;76.10;102734.72;5061402;28;20058;-37
2021/10/11 07:52:37;;;;;;;5.35;0.80;;;;;;;15.91;74.90;102730.50;5071204;28;20048;-36
2021/10/11 07:55:07;;;;;;;4.93;0.70;;;;;;;15.86;74.55;102725.72;5072383;28;20048;-39
2021/10/11 07:57:35;;;;;;;5.38;1.13;;;;;;;15.81;74.49;102732.22;5071255;28;20505;-38
2021/10/11 08:00:03;;;;;;;6.13;1.08;;;;;;;15.74;74.46;102740.16;5068864;28;20254;-38
2021/10/11 08:02:31;;;;;;;4.32;0.70;;;;;;;15.78;74.91;102743.25;5072018;28;20056;-42
2021/10/11 08:04:59;;;;;;;10.13;1.35;;;;;;;15.81;74.99;102731.38;5071200;28;20054;-38
2021/10/11 08:07:27;;;;;;;6.93;0.93;;;;;;;15.81;75.25;102743.47;5071764;28;20072;-41
2021/10/11 08:09:54;;;;;;;6.47;1.02;;;;;;;15.78;75.20;102741.28;5071877;28;20144;-42
2021/10/11 08:12:23;;;;;;;5.72;1.05;;;;;;;15.78;75.54;102737.63;5071099;28;20390;-39
2021/10/11 08:14:52;;;;;;;3.88;0.70;;;;;;;15.76;75.74;102737.91;5071503;28;20141;-38
2021/10/11 08:17:19;;;;;;;6.72;0.82;;;;;;;15.76;75.98;102746.34;5071559;28;20049;-39
2021/10/11 08:19:47;;;;;;;7.18;1.48;;;;;;;15.73;75.26;102752.53;5070691;28;20090;-36
2021/10/11 08:22:19;;;;;;;6.05;0.98;;;;;;;15.74;75.22;102747.75;5071356;28;20559;-39
2021/10/11 08:24:47;;;;;;;3.40;0.70;;;;;;;15.79;74.89;102751.38;5071543;28;20079;-39
2021/10/11 08:27:17;;;;;;;5.35;0.70;;;;;;;16.09;75.20;102743.91;5070993;28;20286;-39
2021/10/11 08:29:51;;;;;;;5.15;0.85;;;;;;;16.64;74.74;102745.53;5071333;28;20048;-42
2021/10/11 08:32:19;;;;;;;5.20;0.98;;;;;;;17.28;72.92;102740.69;5071302;28;20467;-40
2021/10/11 08:34:47;;;;;;;3.88;0.95;;;;;;;17.83;70.74;102744.84;5070527;28;20502;-40
2021/10/11 08:37:15;;;;;;;4.18;0.80;;;;;;;18.38;70.17;102748.03;5071533;28;20135;-41
2021/10/11 08:39:43;;;;;;;4.53;0.80;;;;;;;18.79;67.75;102746.22;5070471;28;20387;-36
2021/10/11 08:42:13;;;;;;;5.93;0.90;;;;;;;18.89;66.04;102751.72;5071156;28;20135;-43
2021/10/11 08:44:41;;;;;;;6.10;1.00;;;;;;;18.79;65.49;102751.03;5070765;28;20036;-40
2021/10/11 08:47:12;;;;;;;6.78;1.00;;;;;;;18.64;65.83;102751.31;5071094;28;20100;-39
2021/10/11 08:49:42;;;;;;;5.68;1.20;;;;;;;18.48;65.71;102742.22;5070427;28;20151;-38
2021/10/11 08:52:09;;;;;;;2.65;0.70;;;;;;;18.32;66.00;102744.44;5071207;28;20045;-40
2021/10/11 08:54:37;;;;;;;5.82;1.10;;;;;;;18.18;65.89;102744.38;5070205;28;20874;-39
2021/10/11 08:57:06;;;;;;;5.57;1.20;;;;;;;18.08;66.44;102746.50;5070912;28;20131;-36
2021/10/11 08:59:48;;;;;;;6.78;1.38;;;;;;;18.28;66.21;102746.19;5071165;28;20053;-42
2021/10/11 09:02:20;;;;;;;8.30;1.35;;;;;;;18.44;65.80;102758.94;5070322;28;20492;-36
2021/10/11 09:04:52;;;;;;;7.28;1.90;;;;;;;18.46;65.99;102759.47;5070970;28;20060;-39
2021/10/11 09:07:23;;;;;;;3.83;1.00;;;;;;;18.31;65.64;102761.69;5068144;28;20054;-41
2021/10/11 09:09:53;;;;;;;3.65;0.80;;;;;;;18.07;65.43;102764.59;5069932;28;20059;-42
2021/10/11 09:12:23;;;;;;;4.85;0.80;;;;;;;17.83;65.31;102756.97;5070795;28;20056;-43
2021/10/11 09:15:05;;;;;;;4.47;0.75;;;;;;;17.62;65.04;102768.78;5070771;28;20048;-43
2021/10/11 09:17:37;;;;;;;4.72;1.15;;;;;;;17.42;66.28;102767.06;5070503;28;20045;-36
2021/10/11 09:20:09;;;;;;;7.82;1.33;;;;;;;17.28;66.91;102766.94;5070740;28;20045;-40
2021/10/11 09:22:38;;;;;;;;;;;;;;;17.11;66.09;102758.06;5069595;28;20040;-35
2021/10/11 09:25:07;;;;;;;2.72;0.60;;;;;;;17.03;68.61;102755.88;5070859;28;20350;-36
2021/10/11 09:27:43;;;;;;;6.05;0.88;;;;;;;16.99;68.32;102754.78;5070720;28;20416;-41
2021/10/11 09:30:12;;;;;;;6.22;1.13;;;;;;;16.94;68.90;102754.88;5070113;28;20132;-44
2021/10/11 09:32:41;;;;;;;5.78;0.98;;;;;;;16.93;68.99;102762.47;5070243;28;20045;-41
2021/10/11 09:35:13;;;;;;;3.83;0.90;;;;;;;16.93;69.15;102758.81;5070587;28;20037;-35
2021/10/11 09:37:41;;;;;;;5.43;0.82;;;;;;;16.89;69.57;102767.03;5069838;28;20067;-38
2021/10/11 09:40:10;;;;;;;4.75;1.00;;;;;;;16.78;70.32;102765.44;5070734;28;20459;-38
2021/10/11 09:42:38;;;;;;;5.68;1.00;;;;;;;16.66;71.02;102762.13;5070451;28;20052;-36
2021/10/11 09:45:06;;;;;;;5.15;1.02;;;;;;;16.56;71.35;102759.38;5070284;28;20053;-40
2021/10/11 09:47:36;;;;;;;4.85;1.27;;;;;;;16.52;71.82;102753.50;5070662;28;20044;-40
2021/10/11 09:50:07;;;;;;;6.57;0.95;;;;;;;16.47;71.44;102756.34;5069942;28;20048;-38
2021/10/11 09:52:36;;;;;;;4.43;0.85;;;;;;;16.43;71.14;102758.03;5067047;28;20037;-39
2021/10/11 09:55:06;;;;;;;5.55;0.77;;;;;;;16.42;71.00;102760.03;5070557;28;20049;-41
2021/10/11 09:57:35;;;;;;;6.32;0.90;;;;;;;16.48;71.10;102764.50;5069505;28;20040;-43
2021/10/11 10:00:07;;;;;;;6.30;1.60;;;;;;;16.60;71.75;102758.47;5071264;28;20139;-41
2021/10/11 10:02:46;;;;;;;5.60;0.83;;;;;;;16.62;71.42;102763.81;5074069;28;20044;-43
2021/10/11 10:05:18;;;;;;;6.88;1.30;;;;;;;16.60;70.42;102768.91;5073621;28;20041;-38
2021/10/11 10:07:50;;;;;;;6.32;0.80;;;;;;;16.76;69.86;102765.72;5074126;28;20136;-36
2021/10/11 10:10:20;;;;;;;8.15;1.00;;;;;;;17.26;68.41;102757.91;5074065;28;20159;-40
2021/10/11 10:12:49;;;;;;;6.35;1.13;;;;;;;17.65;66.31;102765.41;5073127;28;20143;-36
2021/10/11 10:15:27;;;;;;;5.13;0.90;;;;;;;18.04;65.11;102763.19;5074191;28;20044;-36
2021/10/11 10:18:03;;;;;;;5.38;1.48;;;;;;;18.47;64.20;102752.69;5073709;28;20139;-36
2021/10/11 10:20:33;;;;;;;4.63;0.90;;;;;;;18.90;62.63;102759.06;5073275;28;20068;-35
2021/10/11 10:23:02;;;;;;;3.78;0.88;;;;;;;19.16;61.84;102755.78;5073794;28;20054;-40
2021/10/11 10:25:31;;;;;;;4.75;1.05;;;;;;;19.27;61.58;102751.59;5073592;28;20557;-36
2021/10/11 10:28:10;;;;;;;5.32;1.13;;;;;;;19.29;60.62;102760.63;5073532;28;20041;-37
2021/10/11 10:30:38;;;;;;;4.90;0.85;;;;;;;19.33;60.51;102752.34;5064093;28;20087;-36
2021/10/11 10:33:07;;;;;;;4.95;1.05;;;;;;;19.45;60.33;102747.84;5072595;28;20060;-38
2021/10/11 10:35:39;;;;;;;5.57;0.85;;;;;;;19.38;59.70;102757.91;5073833;28;20078;-36
2021/10/11 10:38:16;;;;;;;6.85;0.93;;;;;;;19.27;59.88;102762.91;5073540;28;20139;-38
2021/10/11 10:40:44;;;;;;;6.32;0.82;;;;;;;19.19;60.30;102757.97;5073074;28;20036;-35
2021/10/11 10:43:16;;;;;;;3.28;0.82;;;;;;;19.34;60.46;102757.69;5073211;28;20557;-41
2021/10/11 10:45:45;;;;;;;4.50;1.38;;;;;;;19.40;59.56;102750.75;5073946;28;20082;-40
2021/10/11 10:48:18;;;;;;;5.82;0.95;;;;;;;19.37;59.63;102762.75;5072592;28;20055;-36
2021/10/11 10:50:48;;;;;;;5.90;0.88;;;;;;;19.33;59.44;102763.66;5070438;28;20123;-36
2021/10/11 10:53:16;;;;;;;3.38;0.90;;;;;;;19.25;59.00;102751.06;5073107;28;20032;-37
2021/10/11 10:55:44;;;;;;;6.82;0.88;;;;;;;19.31;58.04;102746.16;5073151;28;20049;-38
2021/10/11 10:58:15;;;;;;;4.25;0.85;;;;;;;19.47;57.07;102739.88;5072981;28;20114;-36
2021/10/11 11:00:44;;;;;;;3.65;0.82;;;;;;;19.76;57.25;102748.09;5072789;28;20044;-38
2021/10/11 11:03:14;;;;;;;4.25;0.85;;;;;;;19.93;56.81;102753.94;5072912;28;20090;-37
2021/10/11 11:05:43;;;;;;;5.47;0.88;;;;;;;20.08;55.65;102758.44;5072927;28;20509;-42
2021/10/11 11:08:32;;;;;;;3.97;0.80;;;;;;;20.15;55.32;102758.84;5072281;28;20039;-39
2021/10/11 11:11:01;;;;;;;5.10;0.88;;;;;;;20.18;53.94;102752.53;5072643;28;20459;-41
2021/10/11 11:13:29;;;;;;;4.70;0.65;;;;;;;20.09;54.08;102756.44;5072083;28;20055;-37
2021/10/11 11:15:57;;;;;;;5.47;1.05;;;;;;;19.87;54.13;102748.69;5072224;28;20052;-35
2021/10/11 11:18:27;;;;;;;3.90;0.80;;;;;;;19.59;54.60;102748.72;5072932;28;20037;-38
2021/10/11 11:20:56;;;;;;;3.72;0.90;;;;;;;19.36;56.00;102761.06;5072483;28;20048;-39
2021/10/11 11:23:25;;;;;;;3.55;0.75;;;;;;;19.20;56.46;102759.66;5072442;28;20046;-35
2021/10/11 11:25:56;;;;;;;6.10;1.50;;;;;;;19.16;56.87;102755.78;5072918;28;20060;-38
2021/10/11 11:28:28;;;;;;;6.40;1.17;;;;;;;19.17;57.57;102760.28;5072801;28;20074;-40
2021/10/11 11:31:02;;;;;;;;;;;;;;;19.14;55.73;102753.25;5073057;28;20040;-38